Главная страница
METAR-TAF:

METAR-TAF

Аэропорты :

Фуншал, Мадейра, Португалия

Криштиану Роналду

широта: 32-41-52N, долгота: 016-46-28W, высота над уровнем моря: 59 м

Текущие метеонаблюдения

Эта сводка был подготовлена 24 минут назад, в 02:00 UTC
Ветер 13 Узел от северо-северо-восточный
Температура 16°C
Влажность 72%
Давление 1029 hPa
Видимость 10 км и более
Рассеянная облачность на высоте 1600 фута

METAR: LPMA 230200Z 02013KT 9999 BKN016 16/11 Q1029

Время: 02:24 (02:24 UTC)

Прогноз

Эта сводка был подготовлена 3 часа и 24 минут назад, в 23:00 UTC
Прогноз действительный с 23-го 00 UTC до 23-го 24 UTC
Ветер 12 Узел от северо-северо-восточный
Видимость 10 км и более
Отдельные облака на высоте 1500 фута
временами
С 23-го 00 UTC до 23-го 08 UTC
Рассеянная облачность на высоте 1500 фута

TAF: LPMA 222300Z 2300/2324 02012KT 9999 SCT015 TEMPO 2300/2308 BKN015

Метеонаблюдения и прогнозы для более 4000 аэропортов (сводки METAR и TAF).

Имеющиеся станции представлены на карте желтыми и красными точками.

Чтобы увидеть название станции, наведите на нее мышь.

Затем щелкните, чтобы увидеть метеонаблюдения и метеопрогнозы.

Управление картой: чтобы увеличить масштаб, щелкните зеленые кнопки с черным крестиком; чтобы уменьшить масштаб, щелкните зеленую кнопку с тире; для просмотра соседних карт щелкайте зеленые стрелки.


METAR-TAF: